| time (UTC) | temp C | wind direction | speed KPH | gust KPH | rain 1hr cm | rain 24hr cm | rain mn cm | humidity % | barometer mb |
| 20260507062956 | 11 | 166 | 3.2 | 6.4 | 0.00 | 0.00 | 0.00 | 93 | 1021.3 |
| 20260507062452 | 11 | 168 | 4.8 | 9.7 | 0.00 | 0.00 | 0.00 | 93 | 1021.3 |
| 20260507061950 | 11 | 114 | 0.0 | 8.0 | 0.00 | 0.00 | 0.00 | 93 | 1021.3 |
| 20260507061448 | 11 | 175 | 4.8 | 8.0 | 0.00 | 0.00 | 0.00 | 93 | 1021.5 |
| 20260507060946 | 11 | 180 | 6.4 | 8.0 | 0.00 | 0.00 | 0.00 | 93 | 1021.4 |
| 20260507060442 | 11 | 209 | 4.8 | 6.4 | 0.00 | 0.00 | 0.00 | 92 | 1021.4 |
| 20260507055939 | 11 | 175 | 3.2 | 4.8 | 0.00 | 0.00 | 0.00 | 92 | 1021.5 |
| 20260507055434 | 11 | 143 | 3.2 | 4.8 | 0.00 | 0.00 | 0.00 | 92 | 1021.5 |
| 20260507054931 | 11 | 182 | 6.4 | 8.0 | 0.00 | 0.00 | 0.00 | 91 | 1021.3 |
| 20260507054427 | 11 | 176 | 3.2 | 6.4 | 0.00 | 0.00 | 0.00 | 91 | 1021.4 |
| 20260507053925 | 12 | 123 | 1.6 | 8.0 | 0.00 | 0.00 | 0.00 | 91 | 1021.3 |
| 20260507053422 | 11 | 154 | 1.6 | 8.0 | 0.00 | 0.00 | 0.00 | 91 | 1021.6 |
| 20260507052921 | 12 | 249 | 4.8 | 4.8 | 0.00 | 0.00 | 0.00 | 91 | 1021.5 |
| 20260507052418 | 12 | 177 | 4.8 | 6.4 | 0.00 | 0.00 | 0.00 | 91 | 1021.4 |
| 20260507051915 | 12 | 204 | 11.3 | 12.9 | 0.00 | 0.00 | 0.00 | 90 | 1021.4 |
| 20260507051413 | 12 | 194 | 4.8 | 9.7 | 0.00 | 0.00 | 0.00 | 90 | 1021.5 |
| 20260507050909 | 12 | 180 | 4.8 | 9.7 | 0.00 | 0.00 | 0.00 | 90 | 1021.4 |
| 20260507050406 | 12 | 135 | 4.8 | 9.7 | 0.00 | 0.00 | 0.00 | 90 | 1021.2 |
| 20260507045902 | 12 | 161 | 3.2 | 8.0 | 0.00 | 0.00 | 0.00 | 90 | 1021.3 |
| 20260507045359 | 12 | 199 | 8.0 | 12.9 | 0.00 | 0.00 | 0.00 | 90 | 1021.3 |
| 20260507044857 | 12 | 161 | 3.2 | 8.0 | 0.00 | 0.00 | 0.00 | 89 | 1021.6 |
| 20260507044353 | 12 | 135 | 3.2 | 8.0 | 0.00 | 0.00 | 0.00 | 89 | 1021.3 |
| 20260507043849 | 12 | 153 | 4.8 | 6.4 | 0.00 | 0.00 | 0.00 | 89 | 1021.4 |
| 20260507043346 | 12 | 160 | 1.6 | 6.4 | 0.00 | 0.00 | 0.00 | 89 | 1021.3 |
| 20260507042842 | 12 | 109 | 1.6 | 6.4 | 0.00 | 0.00 | 0.00 | 89 | 1021.4 |
| 20260507042338 | 12 | 157 | 3.2 | 6.4 | 0.00 | 0.00 | 0.00 | 88 | 1021.3 |
| 20260507041835 | 12 | 105 | 1.6 | 3.2 | 0.00 | 0.00 | 0.00 | 88 | 1021.2 |
| 20260507041331 | 12 | 174 | 4.8 | 4.8 | 0.00 | 0.00 | 0.00 | 88 | 1021.3 |
| 20260507040829 | 12 | 166 | 3.2 | 4.8 | 0.00 | 0.00 | 0.00 | 88 | 1021.2 |
| 20260507040325 | 12 | 225 | 6.4 | 6.4 | 0.00 | 0.00 | 0.00 | 88 | 1021.2 |
| 20260507035821 | 12 | 180 | 4.8 | 6.4 | 0.00 | 0.00 | 0.00 | 88 | 1021.1 |
| 20260507035316 | 12 | 154 | 1.6 | 6.4 | 0.00 | 0.00 | 0.00 | 87 | 1021.1 |
| 20260507034814 | 12 | 165 | 3.2 | 4.8 | 0.00 | 0.00 | 0.00 | 87 | 1021.2 |
| 20260507034311 | 12 | 180 | 4.8 | 4.8 | 0.00 | 0.00 | 0.00 | 87 | 1021.1 |
| 20260507033809 | 12 | 166 | 3.2 | 4.8 | 0.00 | 0.00 | 0.00 | 87 | 1021.2 |
| 20260507033306 | 12 | 186 | 4.8 | 6.4 | 0.00 | 0.00 | 0.00 | 86 | 1021.1 |
| 20260507032803 | 12 | 180 | 0.0 | 3.2 | 0.00 | 0.00 | 0.00 | 86 | 1021.1 |
| 20260507032259 | 12 | 90 | 0.0 | 3.2 | 0.00 | 0.00 | 0.00 | 86 | 1021.2 |
| 20260507031756 | 12 | 154 | 3.2 | 6.4 | 0.00 | 0.00 | 0.00 | 86 | 1020.8 |
| 20260507031253 | 13 | 152 | 3.2 | 4.8 | 0.00 | 0.00 | 0.00 | 85 | 1020.8 |
| 20260507030749 | 13 | 157 | 0.0 | 3.2 | 0.00 | 0.00 | 0.00 | 85 | 1020.9 |
| 20260507030247 | 13 | 189 | 4.8 | 6.4 | 0.00 | 0.00 | 0.00 | 85 | 1020.9 |
| 20260507025744 | 13 | 189 | 3.2 | 4.8 | 0.00 | 0.00 | 0.00 | 84 | 1020.7 |
| 20260507025241 | 13 | 165 | 0.0 | 8.0 | 0.00 | 0.00 | 0.00 | 84 | 1020.6 |
| 20260507024739 | 13 | 154 | 0.0 | 4.8 | 0.00 | 0.00 | 0.00 | 84 | 1020.7 |
| 20260507024236 | 13 | 185 | 1.6 | 3.2 | 0.00 | 0.00 | 0.00 | 84 | 1020.7 |
| 20260507023731 | 13 | 186 | 4.8 | 4.8 | 0.00 | 0.00 | 0.00 | 83 | 1020.6 |
| 20260507023229 | 13 | 162 | 1.6 | 6.4 | 0.00 | 0.00 | 0.00 | 83 | 1020.6 |
| 20260507022726 | 13 | 99 | 0.0 | 4.8 | 0.00 | 0.00 | 0.00 | 83 | 1020.6 |
| 20260507022222 | 13 | 189 | 4.8 | 4.8 | 0.00 | 0.00 | 0.00 | 83 | 1020.6 |
| 20260507021718 | 13 | 140 | 3.2 | 6.4 | 0.00 | 0.00 | 0.00 | 83 | 1020.5 |
| 20260507021214 | 13 | 94 | 3.2 | 4.8 | 0.00 | 0.00 | 0.00 | 83 | 1020.6 |
| 20260507020713 | 13 | 166 | 1.6 | 3.2 | 0.00 | 0.00 | 0.00 | 83 | 1020.5 |
| 20260507020208 | 13 | 189 | 6.4 | 6.4 | 0.00 | 0.00 | 0.00 | 83 | 1020.4 |
| 20260507015707 | 13 | 169 | 1.6 | 8.0 | 0.00 | 0.00 | 0.00 | 83 | 1020.7 |
| 20260507015203 | 13 | 185 | 4.8 | 4.8 | 0.00 | 0.00 | 0.00 | 83 | 1020.6 |
| 20260507014700 | 13 | 180 | 6.4 | 6.4 | 0.00 | 0.00 | 0.00 | 83 | 1020.6 |
| 20260507014156 | 13 | 183 | 6.4 | 6.4 | 0.00 | 0.00 | 0.00 | 83 | 1020.6 |
| 20260507013653 | 13 | 225 | 0.0 | 4.8 | 0.00 | 0.00 | 0.00 | 83 | 1020.7 |
| 20260507013150 | 13 | 114 | 0.0 | 4.8 | 0.00 | 0.00 | 0.00 | 83 | 1020.7 |
| 20260507012648 | 13 | 173 | 1.6 | 3.2 | 0.00 | 0.00 | 0.00 | 83 | 1020.5 |
| 20260507012143 | 13 | 131 | 0.0 | 4.8 | 0.00 | 0.00 | 0.00 | 83 | 1020.7 |
| 20260507011641 | 13 | 145 | 0.0 | 6.4 | 0.00 | 0.00 | 0.00 | 84 | 1020.6 |
| 20260507011137 | 13 | 199 | 6.4 | 6.4 | 0.00 | 0.00 | 0.00 | 84 | 1020.6 |
| 20260507010632 | 13 | 180 | 0.0 | 4.8 | 0.00 | 0.00 | 0.00 | 84 | 1020.6 |
| 20260507010128 | 13 | 135 | 0.0 | 8.0 | 0.00 | 0.00 | 0.00 | 84 | 1020.7 |
| 20260507005626 | 13 | 190 | 3.2 | 8.0 | 0.00 | 0.00 | 0.00 | 84 | 1020.7 |
| 20260507005121 | 13 | 193 | 4.8 | 6.4 | 0.00 | 0.00 | 0.00 | 84 | 1020.7 |
| 20260507004619 | 13 | 182 | 4.8 | 6.4 | 0.00 | 0.00 | 0.00 | 84 | 1020.7 |
| 20260507004116 | 13 | 192 | 3.2 | 9.7 | 0.00 | 0.00 | 0.00 | 85 | 1020.9 |
| 20260507003612 | 13 | 213 | 6.4 | 8.0 | 0.00 | 0.00 | 0.00 | 84 | 1020.7 |
| 20260507003107 | 13 | 194 | 4.8 | 8.0 | 0.00 | 0.00 | 0.00 | 84 | 1020.9 |
| 20260507002604 | 13 | 183 | 3.2 | 6.4 | 0.00 | 0.00 | 0.00 | 84 | 1020.9 |
| 20260507002059 | 13 | 189 | 4.8 | 11.3 | 0.00 | 0.00 | 0.00 | 84 | 1020.7 |
| 20260507001557 | 13 | 198 | 3.2 | 12.9 | 0.00 | 0.00 | 0.00 | 84 | 1020.7 |
| 20260507001054 | 13 | 212 | 4.8 | 6.4 | 0.00 | 0.00 | 0.00 | 85 | 1020.7 |
| 20260507000550 | 13 | 177 | 3.2 | 6.4 | 0.00 | 0.00 | 0.00 | 86 | 1020.7 |
| 20260507000046 | 13 | 101 | 3.2 | 8.0 | 0.00 | 0.00 | 0.00 | 86 | 1020.7 |
| 20260506235543 | 13 | 196 | 8.0 | 9.7 | 0.00 | 0.00 | 0.00 | 86 | 1020.7 |
| 20260506235038 | 12 | 190 | 6.4 | 11.3 | 0.00 | 0.00 | 0.00 | 86 | 1020.9 |
| 20260506234536 | 13 | 180 | 8.0 | 9.7 | 0.00 | 0.00 | 0.00 | 86 | 1020.8 |
| 20260506234033 | 13 | 161 | 3.2 | 9.7 | 0.00 | 0.00 | 0.00 | 86 | 1020.9 |
| 20260506233530 | 12 | 201 | 0.0 | 8.0 | 0.00 | 0.00 | 0.00 | 86 | 1020.9 |
| 20260506233027 | 12 | 205 | 9.7 | 9.7 | 0.00 | 0.00 | 0.00 | 86 | 1020.8 |
| 20260506232523 | 13 | 188 | 4.8 | 9.7 | 0.00 | 0.00 | 0.00 | 86 | 1020.8 |
| 20260506232019 | 13 | 222 | 3.2 | 11.3 | 0.00 | 0.00 | 0.00 | 85 | 1020.9 |
| 20260506231516 | 13 | 191 | 6.4 | 8.0 | 0.00 | 0.00 | 0.00 | 85 | 1020.9 |
| 20260506231014 | 12 | 210 | 8.0 | 9.7 | 0.00 | 0.00 | 0.00 | 85 | 1020.8 |
| 20260506230510 | 12 | 214 | 6.4 | 6.4 | 0.00 | 0.00 | 0.00 | 85 | 1020.9 |
| 20260506230008 | 12 | 185 | 4.8 | 9.7 | 0.00 | 0.00 | 0.00 | 86 | 1020.8 |
| 20260506225505 | 13 | 190 | 6.4 | 6.4 | 0.00 | 0.00 | 0.00 | 86 | 1021.0 |
| 20260506225001 | 13 | 191 | 6.4 | 6.4 | 0.00 | 0.00 | 0.00 | 86 | 1021.0 |
| 20260506224458 | 13 | 203 | 6.4 | 6.4 | 0.00 | 0.00 | 0.00 | 85 | 1020.8 |
| 20260506223954 | 12 | 186 | 4.8 | 6.4 | 0.00 | 0.00 | 0.00 | 85 | 1020.9 |
| 20260506223450 | 12 | 198 | 8.0 | 9.7 | 0.00 | 0.00 | 0.00 | 85 | 1021.1 |
| 20260506222947 | 12 | 221 | 9.7 | 14.5 | 0.00 | 0.00 | 0.00 | 85 | 1021.0 |
| 20260506222444 | 12 | 234 | 16.1 | 20.9 | 0.00 | 0.00 | 0.00 | 85 | 1021.1 |
| 20260506221941 | 12 | 240 | 11.3 | 22.5 | 0.00 | 0.00 | 0.00 | 85 | 1021.2 |
| 20260506221438 | 12 | 223 | 6.4 | 12.9 | 0.00 | 0.00 | 0.00 | 85 | 1021.1 |
| 20260506220936 | 13 | 230 | 4.8 | 9.7 | 0.00 | 0.00 | 0.00 | 84 | 1021.0 |
| 20260506220431 | 13 | 251 | 6.4 | 8.0 | 0.00 | 0.00 | 0.00 | 84 | 1021.2 |
| 20260506215928 | 13 | 185 | 4.8 | 6.4 | 0.00 | 0.00 | 0.00 | 84 | 1021.2 |
| 20260506215424 | 13 | 232 | 8.0 | 9.7 | 0.00 | 0.00 | 0.00 | 83 | 1020.9 |
| 20260506214920 | 13 | 202 | 8.0 | 9.7 | 0.00 | 0.00 | 0.00 | 83 | 1020.9 |
| 20260506214417 | 13 | 181 | 8.0 | 12.9 | 0.00 | 0.00 | 0.00 | 83 | 1021.1 |
| 20260506213915 | 13 | 199 | 8.0 | 11.3 | 0.00 | 0.00 | 0.00 | 83 | 1021.1 |
| 20260506213412 | 13 | 216 | 8.0 | 12.9 | 0.00 | 0.00 | 0.00 | 83 | 1021.0 |
| 20260506212909 | 13 | 198 | 11.3 | 19.3 | 0.00 | 0.00 | 0.00 | 84 | 1021.3 |
| 20260506212405 | 12 | 206 | 19.3 | 19.3 | 0.00 | 0.00 | 0.00 | 84 | 1021.2 |
| 20260506211900 | 13 | 205 | 8.0 | 11.3 | 0.00 | 0.00 | 0.00 | 85 | 1021.2 |
| 20260506211356 | 12 | 214 | 9.7 | 14.5 | 0.00 | 0.00 | 0.00 | 84 | 1021.2 |
| 20260506210854 | 12 | 199 | 14.5 | 14.5 | 0.00 | 0.00 | 0.00 | 84 | 1021.1 |
| 20260506210350 | 12 | 200 | 12.9 | 16.1 | 0.00 | 0.00 | 0.00 | 84 | 1021.3 |
| 20260506205848 | 12 | 210 | 12.9 | 14.5 | 0.00 | 0.00 | 0.00 | 84 | 1021.2 |
| 20260506205343 | 12 | 195 | 9.7 | 14.5 | 0.00 | 0.00 | 0.00 | 83 | 1021.3 |
| 20260506204840 | 12 | 233 | 16.1 | 17.7 | 0.00 | 0.00 | 0.00 | 83 | 1021.1 |
| 20260506204338 | 12 | 209 | 17.7 | 19.3 | 0.00 | 0.00 | 0.00 | 84 | 1020.9 |
| 20260506203835 | 12 | 203 | 14.5 | 17.7 | 0.00 | 0.00 | 0.00 | 84 | 1021.1 |
| 20260506203332 | 12 | 216 | 11.3 | 17.7 | 0.00 | 0.00 | 0.00 | 84 | 1021.0 |
| 20260506202829 | 12 | 223 | 16.1 | 16.1 | 0.00 | 0.00 | 0.00 | 84 | 1021.1 |
| 20260506202326 | 12 | 222 | 8.0 | 11.3 | 0.00 | 0.00 | 0.00 | 85 | 1021.2 |
| 20260506201822 | 12 | 233 | 12.9 | 17.7 | 0.00 | 0.00 | 0.00 | 85 | 1021.0 |
| 20260506201320 | 12 | 248 | 12.9 | 16.1 | 0.00 | 0.00 | 0.00 | 85 | 1021.1 |
| 20260506200817 | 12 | 232 | 8.0 | 14.5 | 0.00 | 0.00 | 0.00 | 85 | 1021.2 |
| 20260506200313 | 12 | 225 | 8.0 | 12.9 | 0.00 | 0.00 | 0.00 | 85 | 1021.1 |
| 20260506195809 | 12 | 190 | 4.8 | 9.7 | 0.00 | 0.00 | 0.00 | 86 | 1021.1 |
| 20260506195306 | 12 | 217 | 8.0 | 11.3 | 0.00 | 0.00 | 0.00 | 85 | 1021.0 |
| 20260506194804 | 12 | 228 | 11.3 | 16.1 | 0.00 | 0.00 | 0.00 | 84 | 1021.1 |
| 20260506194300 | 12 | 214 | 9.7 | 14.5 | 0.00 | 0.00 | 0.00 | 85 | 1020.9 |
| 20260506193758 | 12 | 232 | 14.5 | 20.9 | 0.00 | 0.00 | 0.00 | 86 | 1020.9 |
| 20260506193254 | 12 | 245 | 17.7 | 17.7 | 0.00 | 0.00 | 0.00 | 86 | 1021.1 |
| 20260506192750 | 12 | 233 | 8.0 | 14.5 | 0.00 | 0.00 | 0.00 | 86 | 1020.9 |
| 20260506192247 | 12 | 212 | 6.4 | 9.7 | 0.00 | 0.00 | 0.00 | 87 | 1020.8 |
| 20260506191744 | 12 | 172 | 4.8 | 9.7 | 0.00 | 0.00 | 0.00 | 87 | 1020.8 |
| 20260506191240 | 12 | 174 | 4.8 | 8.0 | 0.00 | 0.00 | 0.00 | 88 | 1020.8 |
| 20260506190738 | 12 | 206 | 6.4 | 6.4 | 0.00 | 0.00 | 0.00 | 89 | 1020.7 |
| 20260506190234 | 12 | 176 | 3.2 | 6.4 | 0.00 | 0.00 | 0.00 | 90 | 1020.7 |
| 20260506185731 | 12 | 208 | 3.2 | 6.4 | 0.00 | 0.00 | 0.00 | 90 | 1020.6 |
| 20260506185227 | 12 | 127 | 3.2 | 6.4 | 0.00 | 0.00 | 0.00 | 91 | 1020.7 |
| 20260506184725 | 12 | 107 | 3.2 | 4.8 | 0.00 | 0.00 | 0.00 | 92 | 1020.7 |
| 20260506184222 | 12 | 187 | 3.2 | 4.8 | 0.00 | 0.00 | 0.00 | 92 | 1020.8 |
| 20260506183719 | 12 | 126 | 1.6 | 4.8 | 0.00 | 0.00 | 0.00 | 93 | 1021.0 |
| 20260506183214 | 11 | 197 | 0.0 | 4.8 | 0.00 | 0.00 | 0.00 | 93 | 1020.8 |
| 20260506182712 | 12 | 189 | 3.2 | 4.8 | 0.00 | 0.00 | 0.00 | 93 | 1020.9 |
| 20260506182209 | 11 | 131 | 3.2 | 4.8 | 0.00 | 0.00 | 0.00 | 94 | 1020.8 |
| 20260506181707 | 11 | 195 | 3.2 | 6.4 | 0.00 | 0.00 | 0.00 | 94 | 1021.0 |
| 20260506181204 | 11 | 168 | 3.2 | 8.0 | 0.00 | 0.00 | 0.00 | 94 | 1020.9 |
| 20260506180701 | 11 | 194 | 8.0 | 11.3 | 0.00 | 0.00 | 0.00 | 94 | 1020.8 |
| 20260506180157 | 11 | 210 | 3.2 | 9.7 | 0.00 | 0.00 | 0.00 | 95 | 1020.6 |
| 20260506175654 | 11 | 183 | 4.8 | 9.7 | 0.00 | 0.00 | 0.00 | 95 | 1020.4 |
| 20260506175150 | 11 | 180 | 6.4 | 12.9 | 0.00 | 0.00 | 0.00 | 95 | 1020.4 |
| 20260506174643 | 11 | 179 | 8.0 | 12.9 | 0.00 | 0.00 | 0.00 | 96 | 1020.5 |
| 20260506174139 | 11 | 208 | 11.3 | 14.5 | 0.00 | 0.00 | 0.00 | 96 | 1020.4 |
| 20260506173638 | 11 | 206 | 12.9 | 14.5 | 0.00 | 0.00 | 0.00 | 96 | 1020.4 |
| 20260506173134 | 11 | 210 | 8.0 | 9.7 | 0.00 | 0.00 | 0.00 | 96 | 1020.5 |
| 20260506172631 | 11 | 204 | 8.0 | 11.3 | 0.00 | 0.00 | 0.00 | 96 | 1020.5 |
| 20260506172127 | 11 | 103 | 0.0 | 3.2 | 0.00 | 0.00 | 0.00 | 97 | 1020.6 |
| 20260506171625 | 11 | 127 | 3.2 | 6.4 | 0.00 | 0.00 | 0.00 | 97 | 1020.4 |
| 20260506171123 | 11 | 105 | 0.0 | 4.8 | 0.00 | 0.00 | 0.00 | 97 | 1020.5 |
| 20260506170620 | 11 | 98 | 1.6 | 6.4 | 0.00 | 0.00 | 0.00 | 97 | 1020.7 |
| 20260506170117 | 11 | 187 | 3.2 | 4.8 | 0.00 | 0.00 | 0.00 | 97 | 1020.6 |
| 20260506165615 | 11 | 114 | 1.6 | 3.2 | 0.00 | 0.00 | 0.00 | 97 | 1020.5 |
| 20260506165111 | 11 | 156 | 3.2 | 6.4 | 0.00 | 0.00 | 0.00 | 97 | 1020.6 |
| 20260506164608 | 11 | 165 | 3.2 | 8.0 | 0.00 | 0.00 | 0.00 | 97 | 1020.6 |
| 20260506164106 | 11 | 194 | 6.4 | 9.7 | 0.00 | 0.00 | 0.00 | 97 | 1020.5 |
| 20260506163601 | 11 | 113 | 3.2 | 4.8 | 0.00 | 0.00 | 0.00 | 97 | 1020.5 |
| 20260506163057 | 11 | 157 | 3.2 | 8.0 | 0.00 | 0.00 | 0.00 | 97 | 1020.5 |
| 20260506162554 | 11 | 180 | 4.8 | 8.0 | 0.00 | 0.00 | 0.00 | 97 | 1020.3 |
| 20260506162051 | 11 | 164 | 8.0 | 8.0 | 0.00 | 0.00 | 0.00 | 97 | 1020.4 |
| 20260506161549 | 11 | 159 | 3.2 | 6.4 | 0.00 | 0.00 | 0.00 | 97 | 1020.2 |
| 20260506161045 | 11 | 146 | 3.2 | 6.4 | 0.00 | 0.00 | 0.00 | 97 | 1020.0 |
| 20260506160543 | 11 | 160 | 3.2 | 11.3 | 0.00 | 0.00 | 0.00 | 97 | 1019.8 |
| 20260506160040 | 11 | 117 | 3.2 | 8.0 | 0.00 | 0.00 | 0.00 | 97 | 1019.7 |
| 20260506155538 | 11 | 139 | 0.0 | 11.3 | 0.00 | 0.00 | 0.00 | 97 | 1020.0 |
| 20260506153709 | 11 | 170 | 3.2 | 6.4 | 0.00 | 0.00 | 0.00 | 97 | 1020.2 |
| 20260506153207 | 11 | 172 | 3.2 | 6.4 | 0.00 | 0.00 | 0.00 | 97 | 1020.5 |
| 20260506152703 | 11 | 120 | 0.0 | 8.0 | 0.00 | 0.00 | 0.00 | 97 | 1020.3 |
| 20260506152200 | 11 | 103 | 1.6 | 8.0 | 0.00 | 0.00 | 0.00 | 97 | 1020.4 |
| 20260506151700 | 11 | 126 | 0.0 | 4.8 | 0.00 | 0.00 | 0.00 | 97 | 1020.2 |
| 20260506151156 | 11 | 132 | 3.2 | 9.7 | 0.00 | 0.00 | 0.00 | 97 | 1020.2 |
| 20260506150653 | 11 | 168 | 3.2 | 14.5 | 0.00 | 0.00 | 0.00 | 97 | 1020.1 |
| 20260506150150 | 11 | 161 | 3.2 | 9.7 | 0.05 | 0.00 | 0.00 | 97 | 1019.7 |
| 20260506145646 | 11 | 157 | 0.0 | 9.7 | 0.05 | 0.00 | 0.00 | 97 | 1019.9 |
| 20260506145143 | 11 | 94 | 3.2 | 6.4 | 0.00 | 0.00 | 0.00 | 96 | 1020.0 |
| 20260506144641 | 11 | 182 | 4.8 | 9.7 | 0.00 | 0.00 | 0.00 | 96 | 1020.1 |
| 20260506144137 | 11 | 200 | 4.8 | 8.0 | 0.00 | 0.00 | 0.00 | 96 | 1020.0 |
| 20260506143635 | 11 | 232 | 4.8 | 8.0 | 0.00 | 0.00 | 0.00 | 96 | 1020.2 |
| 20260506143133 | 11 | 251 | 3.2 | 4.8 | 0.00 | 0.00 | 0.00 | 96 | 1020.4 |
| 20260506142631 | 11 | 248 | 0.0 | 3.2 | 0.00 | 0.00 | 0.00 | 96 | 1020.0 |
| 20260506142129 | 11 | 195 | 3.2 | 6.4 | 0.00 | 0.00 | 0.00 | 95 | 1019.8 |
| 20260506141626 | 11 | 260 | 4.8 | 8.0 | 0.00 | 0.00 | 0.00 | 95 | 1020.0 |
| 20260506141125 | 11 | 90 | 1.6 | 8.0 | 0.00 | 0.00 | 0.00 | 95 | 1019.6 |
| 20260506140622 | 11 | 197 | 3.2 | 4.8 | 0.00 | 0.00 | 0.00 | 95 | 1019.9 |
| 20260506140119 | 11 | 172 | 4.8 | 6.4 | 0.00 | 0.00 | 0.00 | 95 | 1019.6 |
| 20260506135616 | 11 | 135 | 3.2 | 4.8 | 0.00 | 0.00 | 0.00 | 95 | 1019.8 |
| 20260506135112 | 11 | 196 | 4.8 | 6.4 | 0.00 | 0.00 | 0.00 | 95 | 1019.9 |
| 20260506134609 | 11 | 174 | 1.6 | 6.4 | 0.00 | 0.00 | 0.00 | 94 | 1019.8 |
| 20260506134104 | 11 | 180 | 3.2 | 6.4 | 0.00 | 0.00 | 0.00 | 94 | 1019.8 |
| 20260506133602 | 11 | 198 | 6.4 | 6.4 | 0.00 | 0.00 | 0.00 | 94 | 1019.6 |
| 20260506133059 | 11 | 162 | 4.8 | 8.0 | 0.00 | 0.00 | 0.00 | 94 | 1019.8 |
| 20260506132556 | 11 | 111 | 1.6 | 8.0 | 0.00 | 0.00 | 0.00 | 94 | 1019.8 |
| 20260506132053 | 11 | 168 | 3.2 | 6.4 | 0.00 | 0.00 | 0.00 | 94 | 1019.7 |
| 20260506131550 | 11 | 186 | 4.8 | 8.0 | 0.00 | 0.00 | 0.00 | 94 | 1019.6 |
| 20260506131046 | 11 | 201 | 6.4 | 8.0 | 0.00 | 0.00 | 0.00 | 94 | 1019.7 |
| 20260506130543 | 11 | 197 | 6.4 | 11.3 | 0.00 | 0.00 | 0.00 | 93 | 1019.7 |
| 20260506130041 | 11 | 135 | 3.2 | 8.0 | 0.00 | 0.00 | 0.00 | 93 | 1019.0 |
| 20260506125539 | 11 | 191 | 4.8 | 6.4 | 0.00 | 0.00 | 0.00 | 93 | 1019.1 |
| 20260506125037 | 11 | 180 | 4.8 | 8.0 | 0.00 | 0.00 | 0.00 | 93 | 1019.3 |
| 20260506124534 | 11 | 188 | 8.0 | 8.0 | 0.00 | 0.00 | 0.00 | 93 | 1019.3 |
| 20260506124032 | 11 | 180 | 3.2 | 8.0 | 0.00 | 0.00 | 0.00 | 93 | 1019.4 |
| 20260506123529 | 11 | 123 | 3.2 | 4.8 | 0.00 | 0.00 | 0.00 | 93 | 1019.1 |
| 20260506123027 | 11 | 143 | 3.2 | 9.7 | 0.00 | 0.00 | 0.00 | 93 | 1019.3 |
| 20260506122523 | 11 | 189 | 8.0 | 11.3 | 0.00 | 0.00 | 0.00 | 93 | 1019.0 |
| 20260506122022 | 11 | 147 | 3.2 | 8.0 | 0.00 | 0.00 | 0.00 | 93 | 1018.9 |
| 20260506121519 | 11 | 184 | 6.4 | 6.4 | 0.00 | 0.00 | 0.00 | 93 | 1018.8 |
| 20260506121015 | 11 | 178 | 4.8 | 12.9 | 0.00 | 0.00 | 0.00 | 93 | 1019.0 |
| 20260506120513 | 11 | 131 | 3.2 | 6.4 | 0.00 | 0.00 | 0.00 | 93 | 1018.9 |
| 20260506120011 | 11 | 180 | 3.2 | 6.4 | 0.00 | 0.00 | 0.00 | 92 | 1018.9 |
| 20260506115508 | 11 | 177 | 4.8 | 8.0 | 0.00 | 0.00 | 0.00 | 92 | 1019.1 |
| 20260506115007 | 11 | 180 | 3.2 | 9.7 | 0.00 | 0.00 | 0.00 | 92 | 1018.9 |
| 20260506114503 | 11 | 189 | 4.8 | 12.9 | 0.00 | 0.00 | 0.00 | 92 | 1019.0 |
| 20260506114002 | 11 | 201 | 9.7 | 9.7 | 0.00 | 0.00 | 0.00 | 92 | 1018.7 |
| 20260506113459 | 11 | 108 | 3.2 | 8.0 | 0.00 | 0.00 | 0.00 | 92 | 1018.7 |
| 20260506112956 | 11 | 127 | 3.2 | 11.3 | 0.00 | 0.00 | 0.00 | 92 | 1018.6 |
| 20260506112453 | 11 | 86 | 3.2 | 8.0 | 0.00 | 0.00 | 0.00 | 92 | 1018.7 |
| 20260506111950 | 11 | 143 | 4.8 | 8.0 | 0.00 | 0.00 | 0.00 | 92 | 1018.6 |
| 20260506111449 | 11 | 148 | 1.6 | 8.0 | 0.00 | 0.00 | 0.00 | 92 | 1018.5 |
| 20260506110945 | 11 | 135 | 0.0 | 9.7 | 0.00 | 0.00 | 0.00 | 92 | 1018.7 |
| 20260506110443 | 11 | 180 | 3.2 | 9.7 | 0.00 | 0.00 | 0.00 | 92 | 1018.8 |
| 20260506105939 | 11 | 180 | 3.2 | 3.2 | 0.00 | 0.00 | 0.00 | 92 | 1018.6 |
| 20260506105436 | 11 | 157 | 3.2 | 3.2 | 0.00 | 0.00 | 0.00 | 92 | 1018.6 |
| 20260506104933 | 11 | 97 | 0.0 | 4.8 | 0.00 | 0.00 | 0.00 | 92 | 1018.6 |
| 20260506104431 | 11 | 183 | 4.8 | 4.8 | 0.00 | 0.00 | 0.00 | 93 | 1018.5 |
| 20260506103930 | 11 | 124 | 0.0 | 3.2 | 0.00 | 0.00 | 0.00 | 93 | 1018.5 |
| 20260506103427 | 11 | 66 | 0.0 | 3.2 | 0.00 | 0.00 | 0.00 | 93 | 1018.2 |
| 20260506102924 | 11 | 180 | 0.0 | 3.2 | 0.00 | 0.00 | 0.00 | 93 | 1018.4 |
| 20260506102421 | 11 | 173 | 0.0 | 3.2 | 0.00 | 0.00 | 0.00 | 93 | 1018.3 |
| 20260506101918 | 11 | 168 | 1.6 | 6.4 | 0.00 | 0.00 | 0.00 | 93 | 1018.3 |
| 20260506101414 | 11 | 192 | 4.8 | 4.8 | 0.00 | 0.00 | 0.00 | 93 | 1018.3 |
| 20260506100912 | 11 | 156 | 3.2 | 4.8 | 0.00 | 0.00 | 0.00 | 93 | 1018.3 |
| 20260506100410 | 11 | 192 | 4.8 | 6.4 | 0.00 | 0.00 | 0.00 | 92 | 1018.3 |
| 20260506095908 | 11 | 190 | 4.8 | 6.4 | 0.00 | 0.00 | 0.00 | 92 | 1018.3 |
| 20260506095406 | 11 | 195 | 6.4 | 6.4 | 0.00 | 0.00 | 0.00 | 92 | 1018.2 |
| 20260506094902 | 11 | 194 | 6.4 | 8.0 | 0.00 | 0.00 | 0.00 | 92 | 1018.2 |
| 20260506094401 | 11 | 202 | 6.4 | 14.5 | 0.00 | 0.00 | 0.00 | 91 | 1018.1 |
| 20260506093858 | 11 | 196 | 4.8 | 9.7 | 0.00 | 0.00 | 0.00 | 91 | 1017.9 |
| 20260506093356 | 11 | 212 | 8.0 | 12.9 | 0.00 | 0.00 | 0.00 | 91 | 1018.1 |
| 20260506092853 | 11 | 194 | 9.7 | 12.9 | 0.00 | 0.00 | 0.00 | 91 | 1018.1 |
| 20260506092351 | 11 | 228 | 12.9 | 17.7 | 0.00 | 0.00 | 0.00 | 91 | 1017.9 |
| 20260506091847 | 11 | 223 | 4.8 | 9.7 | 0.00 | 0.00 | 0.00 | 91 | 1017.8 |
| 20260506091345 | 11 | 188 | 6.4 | 14.5 | 0.00 | 0.00 | 0.00 | 91 | 1017.8 |
| 20260506090842 | 11 | 152 | 3.2 | 9.7 | 0.00 | 0.00 | 0.00 | 91 | 1017.7 |
| 20260506090340 | 12 | 204 | 9.7 | 14.5 | 0.00 | 0.00 | 0.00 | 91 | 1017.7 |
| 20260506085836 | 12 | 179 | 6.4 | 9.7 | 0.00 | 0.00 | 0.00 | 91 | 1017.8 |
| 20260506085332 | 12 | 180 | 6.4 | 16.1 | 0.00 | 0.00 | 0.00 | 91 | 1017.7 |
| 20260506084829 | 12 | 135 | 4.8 | 11.3 | 0.00 | 0.00 | 0.00 | 91 | 1017.5 |
| 20260506084326 | 12 | 195 | 4.8 | 9.7 | 0.00 | 0.00 | 0.00 | 91 | 1017.5 |
| 20260506083823 | 12 | 204 | 8.0 | 8.0 | 0.00 | 0.00 | 0.00 | 91 | 1017.6 |
| 20260506083320 | 12 | 209 | 3.2 | 9.7 | 0.00 | 0.00 | 0.00 | 90 | 1017.4 |
| 20260506082818 | 12 | 181 | 6.4 | 9.7 | 0.00 | 0.00 | 0.00 | 90 | 1017.4 |
| 20260506082314 | 12 | 197 | 9.7 | 12.9 | 0.00 | 0.00 | 0.00 | 90 | 1017.6 |
| 20260506081810 | 12 | 120 | 1.6 | 11.3 | 0.00 | 0.00 | 0.00 | 90 | 1017.4 |
| 20260506081308 | 12 | 219 | 6.4 | 9.7 | 0.00 | 0.00 | 0.00 | 90 | 1017.4 |
| 20260506080806 | 12 | 183 | 0.0 | 6.4 | 0.00 | 0.00 | 0.00 | 90 | 1017.4 |
| 20260506080302 | 12 | 101 | 3.2 | 8.0 | 0.00 | 0.00 | 0.00 | 90 | 1017.3 |
| 20260506073246 | 12 | 180 | 3.2 | 6.4 | 0.00 | 0.00 | 0.00 | 90 | 1017.1 |
| 20260506072743 | 12 | 109 | 0.0 | 6.4 | 0.00 | 0.00 | 0.00 | 90 | 1017.2 |
| 20260506072241 | 12 | 183 | 4.8 | 4.8 | 0.00 | 0.00 | 0.00 | 89 | 1017.1 |
| 20260506071738 | 12 | 180 | 4.8 | 6.4 | 0.00 | 0.00 | 0.00 | 89 | 1017.0 |
| 20260506071236 | 12 | 186 | 6.4 | 8.0 | 0.00 | 0.00 | 0.00 | 89 | 1017.1 |
| 20260506070733 | 12 | 195 | 6.4 | 8.0 | 0.00 | 0.00 | 0.00 | 89 | 1017.1 |
| 20260506070229 | 12 | 181 | 6.4 | 8.0 | 0.00 | 0.00 | 0.00 | 89 | 1017.1 |